Time;durP1;ratioP1;P1;durP2;ratioP2;P2;SDS_P1;SDS_P2;PMS_P1;PMS_P2;Temp;Humidity;BMP_temperature;BMP_pressure;BME280_temperature;BME280_humidity;BME280_pressure;Samples;Min_cycle;Max_cycle;Signal;HPM_P1;HPM_P2
2024/01/23 00:01:25;;;;;;;487.23;197.38;;;;;;;8.81;100.00;98269.72;4922961;28;20701;-58
2024/01/23 00:03:50;;;;;;;480.73;195.10;;;;;;;8.92;100.00;98267.22;4921287;29;20037;-58
2024/01/23 00:06:16;;;;;;;557.75;211.13;;;;;;;9.16;100.00;98257.00;4918389;29;20035;-59
2024/01/23 00:08:41;;;;;;;501.02;265.08;;;;;;;9.13;100.00;98255.25;4920500;29;20034;-58
2024/01/23 00:11:06;;;;;;;486.00;190.75;;;;;;;8.75;100.00;98250.66;4916652;28;20043;-59
2024/01/23 00:13:32;;;;;;;477.38;189.13;;;;;;;8.16;100.00;98261.28;4920147;29;20447;-56
2024/01/23 00:15:57;;;;;;;463.52;200.15;;;;;;;8.10;100.00;98264.72;4919755;28;20036;-57
2024/01/23 00:18:22;;;;;;;514.17;236.05;;;;;;;8.00;100.00;98265.44;4919960;29;20342;-58
2024/01/23 00:20:48;;;;;;;480.65;213.25;;;;;;;8.14;100.00;98263.88;4914045;28;20098;-58
2024/01/23 00:23:13;;;;;;;534.45;216.15;;;;;;;8.44;100.00;98267.66;4918681;29;20125;-58
2024/01/23 00:25:39;;;;;;;509.48;191.50;;;;;;;8.55;100.00;98260.00;4918829;28;20036;-58
2024/01/23 00:28:06;;;;;;;528.50;192.10;;;;;;;9.16;100.00;98270.84;4915411;29;20254;-58
2024/01/23 00:30:31;;;;;;;519.80;240.75;;;;;;;8.67;100.00;98264.41;4914727;28;20044;-58
2024/01/23 00:32:59;;;;;;;547.40;246.40;;;;;;;9.03;100.00;98269.91;4916037;29;20417;-57
2024/01/23 00:35:24;;;;;;;598.15;197.57;;;;;;;8.61;100.00;98264.34;4915853;28;20390;-57
2024/01/23 00:37:49;;;;;;;504.05;218.38;;;;;;;9.26;100.00;98258.81;4923239;29;20617;-58
2024/01/23 00:40:15;;;;;;;598.08;305.45;;;;;;;9.20;100.00;98257.03;4916988;29;20020;-59
2024/01/23 00:42:40;;;;;;;569.70;340.38;;;;;;;9.57;100.00;98260.72;4920370;29;20091;-57
2024/01/23 00:45:06;;;;;;;486.02;252.68;;;;;;;8.84;100.00;98263.69;4923245;29;20608;-58
2024/01/23 00:47:31;;;;;;;486.20;246.52;;;;;;;8.72;100.00;98267.03;4922790;28;20035;-58
2024/01/23 00:49:57;;;;;;;451.42;189.32;;;;;;;11.00;100.00;98260.16;4923245;29;20028;-58
2024/01/23 00:52:22;;;;;;;549.33;192.35;;;;;;;10.51;100.00;98283.56;4919246;29;20478;-58
2024/01/23 00:54:47;;;;;;;458.48;197.77;;;;;;;9.86;100.00;98302.41;4922817;29;20512;-56
2024/01/23 00:57:13;;;;;;;540.33;190.13;;;;;;;9.66;100.00;98304.03;4918990;28;20036;-57
2024/01/23 00:59:38;;;;;;;504.25;185.13;;;;;;;9.01;100.00;98302.72;4922433;29;20031;-57
2024/01/23 01:02:04;;;;;;;485.98;185.30;;;;;;;8.52;100.00;98291.03;4919296;28;20048;-58
2024/01/23 01:04:29;;;;;;;454.33;185.25;;;;;;;7.93;100.00;98299.06;4919604;29;20059;-57
2024/01/23 01:06:54;;;;;;;534.78;189.85;;;;;;;7.92;100.00;98292.13;4914178;28;20301;-57
2024/01/23 01:09:21;;;;;;;530.78;191.30;;;;;;;7.58;100.00;98317.59;4918647;29;20665;-58
2024/01/23 01:11:46;;;;;;;472.92;187.73;;;;;;;7.31;100.00;98326.66;4921050;29;20031;-57
2024/01/23 01:14:11;;;;;;;599.15;200.65;;;;;;;7.19;100.00;98345.47;4918339;29;20035;-57
2024/01/23 01:16:37;;;;;;;504.35;206.55;;;;;;;7.23;100.00;98341.19;4920296;28;20040;-56
2024/01/23 01:19:03;;;;;;;542.78;199.73;;;;;;;9.35;100.00;98328.94;4916714;29;20032;-56
2024/01/23 01:21:29;;;;;;;669.72;369.10;;;;;;;9.90;100.00;98309.34;4917929;28;20031;-57
2024/01/23 01:23:54;;;;;;;497.85;225.48;;;;;;;9.66;100.00;98312.69;4917329;29;20035;-57
2024/01/23 01:26:19;;;;;;;729.55;402.02;;;;;;;8.77;100.00;98329.34;4919463;28;20044;-57
2024/01/23 01:28:45;;;;;;;551.10;221.63;;;;;;;7.58;100.00;98342.59;4917561;29;20024;-57
2024/01/23 01:31:10;;;;;;;542.47;196.85;;;;;;;8.72;100.00;98348.31;4916035;29;20260;-57
2024/01/23 01:33:35;;;;;;;501.63;204.60;;;;;;;8.29;100.00;98340.94;4918770;29;20523;-56
2024/01/23 01:36:01;;;;;;;559.53;210.68;;;;;;;8.36;100.00;98349.63;4914000;28;20731;-57
2024/01/23 01:38:26;;;;;;;570.13;212.40;;;;;;;8.19;100.00;98344.25;4916055;29;20028;-57
2024/01/23 01:40:51;;;;;;;489.83;189.00;;;;;;;8.65;100.00;98348.25;4915756;29;20051;-57
2024/01/23 01:43:25;;;;;;;594.88;241.65;;;;;;;8.35;100.00;98337.50;4920229;29;20050;-56
2024/01/23 01:46:07;;;;;;;477.35;195.05;;;;;;;7.51;100.00;98339.94;4924918;29;21077;-56
2024/01/23 01:48:33;;;;;;;;;;;;;;;8.37;100.00;98328.03;4921889;29;20426;-57
2024/01/23 01:50:58;;;;;;;484.60;200.15;;;;;;;8.05;100.00;98331.13;4920317;28;20418;-57
2024/01/23 01:53:23;;;;;;;553.70;200.15;;;;;;;9.60;100.00;98328.22;4918093;29;20021;-58
2024/01/23 01:55:49;;;;;;;510.30;225.75;;;;;;;9.73;100.00;98324.84;4918085;28;20039;-57
2024/01/23 01:58:17;;;;;;;596.55;313.02;;;;;;;9.13;100.00;98329.66;4921449;29;20053;-58
2024/01/23 02:00:43;;;;;;;541.45;230.07;;;;;;;9.04;100.00;98327.84;4923890;28;20047;-57
2024/01/23 02:03:10;;;;;;;549.25;199.48;;;;;;;9.98;100.00;98327.56;4920814;29;20064;-56
2024/01/23 02:05:35;;;;;;;510.55;192.13;;;;;;;11.09;100.00;98324.38;4921764;28;20046;-59
2024/01/23 02:08:01;;;;;;;535.72;223.30;;;;;;;10.58;100.00;98320.00;4922626;29;20123;-56
2024/01/23 02:10:26;;;;;;;624.53;239.30;;;;;;;10.42;100.00;98330.31;4917951;28;20404;-56
2024/01/23 02:12:51;;;;;;;488.33;192.00;;;;;;;11.35;100.00;98324.34;4924986;29;20030;-57
2024/01/23 02:15:17;;;;;;;589.30;199.07;;;;;;;10.86;100.00;98314.81;4918852;29;20059;-56
2024/01/23 02:17:42;;;;;;;570.38;279.35;;;;;;;10.48;100.00;98324.31;4920093;29;20029;-58
2024/01/23 02:20:08;;;;;;;539.30;194.30;;;;;;;10.13;100.00;98321.56;4920084;29;20031;-56
2024/01/23 02:22:34;;;;;;;556.60;207.80;;;;;;;10.81;100.00;98333.03;4921652;29;20078;-56
2024/01/23 02:24:59;;;;;;;550.15;211.43;;;;;;;9.17;100.00;98327.06;4924242;29;20028;-57
2024/01/23 02:27:24;;;;;;;554.85;229.73;;;;;;;9.36;100.00;98329.81;4918959;29;20139;-57
2024/01/23 02:29:50;;;;;;;523.35;206.43;;;;;;;9.49;100.00;98335.94;4919558;29;20354;-56
2024/01/23 02:32:15;;;;;;;591.92;198.45;;;;;;;10.18;100.00;98336.31;4917672;28;20130;-58
2024/01/23 02:34:40;;;;;;;509.60;191.60;;;;;;;10.32;100.00;98326.81;4917454;29;20273;-56
2024/01/23 02:37:06;;;;;;;524.58;222.65;;;;;;;10.05;100.00;98335.41;4921837;28;20050;-57
2024/01/23 02:39:31;;;;;;;556.70;194.75;;;;;;;10.31;100.00;98347.63;4920339;29;20032;-59
2024/01/23 02:41:56;;;;;;;492.38;189.00;;;;;;;10.15;100.00;98348.44;4920265;28;20036;-57
2024/01/23 02:44:22;;;;;;;649.28;305.67;;;;;;;11.54;100.00;98346.03;4921339;29;20080;-56
2024/01/23 02:46:47;;;;;;;526.33;204.60;;;;;;;9.98;100.00;98348.34;4918049;28;20068;-57
2024/01/23 02:49:13;;;;;;;538.75;243.60;;;;;;;10.43;100.00;98345.03;4918056;29;20392;-56
2024/01/23 02:51:38;;;;;;;565.80;252.85;;;;;;;10.26;100.00;98355.41;4918672;28;20140;-57
2024/01/23 02:54:03;;;;;;;539.38;216.25;;;;;;;9.87;100.00;98365.59;4920959;29;20099;-57
2024/01/23 02:56:29;;;;;;;579.45;199.82;;;;;;;10.52;100.00;98363.34;4916939;29;20355;-57
2024/01/23 02:58:54;;;;;;;576.90;307.65;;;;;;;9.97;100.00;98359.63;4920959;29;20023;-58
2024/01/23 03:01:19;;;;;;;660.50;228.07;;;;;;;9.89;100.00;98358.69;4918846;29;20046;-56
2024/01/23 03:03:45;;;;;;;555.88;267.55;;;;;;;9.56;100.00;98357.63;4920163;29;20031;-58
2024/01/23 03:06:10;;;;;;;539.08;211.57;;;;;;;10.15;100.00;98357.97;4919131;29;20046;-57
2024/01/23 03:08:35;;;;;;;605.35;229.75;;;;;;;10.85;100.00;98371.22;4916863;29;20039;-58
2024/01/23 03:11:01;;;;;;;549.90;190.80;;;;;;;9.87;100.00;98373.41;4919021;28;20035;-57
2024/01/23 03:13:26;;;;;;;636.22;252.43;;;;;;;9.16;100.00;98372.06;4921160;28;20067;-57
2024/01/23 03:15:53;;;;;;;526.20;216.63;;;;;;;10.39;100.00;98375.38;4919337;28;20249;-58
2024/01/23 03:18:18;;;;;;;562.92;192.02;;;;;;;9.66;100.00;98368.97;4924651;29;20090;-57
2024/01/23 03:20:43;;;;;;;501.13;191.57;;;;;;;8.98;100.00;98381.41;4919704;29;20048;-57
2024/01/23 03:23:10;;;;;;;529.83;192.85;;;;;;;9.56;100.00;98378.41;4920763;29;20439;-58
2024/01/23 03:25:35;;;;;;;510.92;218.48;;;;;;;9.80;100.00;98367.31;4920856;28;20079;-57
2024/01/23 03:28:01;;;;;;;535.28;255.15;;;;;;;10.12;100.00;98358.81;4919052;29;20020;-58
2024/01/23 03:30:30;;;;;;;622.63;184.18;;;;;;;9.09;100.00;98367.66;4919316;28;20048;-58
2024/01/23 03:32:56;;;;;;;489.52;180.90;;;;;;;9.16;100.00;98361.66;4921245;29;20300;-58
2024/01/23 03:35:22;;;;;;;613.33;227.10;;;;;;;10.23;100.00;98366.66;4913053;28;20098;-57
2024/01/23 03:37:48;;;;;;;477.83;176.07;;;;;;;9.54;100.00;98378.38;4918046;29;20031;-57
2024/01/23 03:40:13;;;;;;;476.83;181.23;;;;;;;8.97;100.00;98386.59;4917413;28;21120;-57
2024/01/23 03:42:39;;;;;;;495.38;180.20;;;;;;;9.01;100.00;98384.91;4917977;29;20606;-57
2024/01/23 03:45:04;;;;;;;505.80;187.32;;;;;;;10.12;100.00;98378.72;4916693;29;20674;-58
2024/01/23 03:47:30;;;;;;;593.05;190.13;;;;;;;10.15;100.00;98390.03;4916299;28;20042;-57
2024/01/23 03:49:55;;;;;;;496.00;205.80;;;;;;;10.41;100.00;98386.69;4917527;29;20051;-59
2024/01/23 03:52:22;;;;;;;559.70;189.75;;;;;;;9.43;100.00;98393.03;4918082;28;20036;-57
2024/01/23 03:54:48;;;;;;;513.72;205.93;;;;;;;9.04;100.00;98403.97;4916163;29;20499;-57
2024/01/23 03:57:14;;;;;;;523.33;205.65;;;;;;;10.11;100.00;98401.28;4917223;29;20141;-57
2024/01/23 03:59:43;;;;;;;500.15;181.88;;;;;;;9.98;100.00;98396.88;4915557;29;20115;-57
2024/01/23 04:02:08;;;;;;;516.17;220.98;;;;;;;10.38;100.00;98386.66;4916468;28;20127;-57
2024/01/23 04:04:34;;;;;;;610.50;183.95;;;;;;;9.37;100.00;98399.94;4918179;29;20102;-57
2024/01/23 04:06:59;;;;;;;511.63;188.88;;;;;;;9.15;100.00;98417.03;4917820;29;20042;-57
2024/01/23 04:09:24;;;;;;;560.60;184.32;;;;;;;8.61;100.00;98416.47;4916320;29;20500;-57
2024/01/23 04:11:50;;;;;;;506.20;196.75;;;;;;;9.08;100.00;98417.81;4919329;28;20408;-58
2024/01/23 04:14:16;;;;;;;480.55;181.13;;;;;;;9.02;100.00;98434.19;4921083;29;20024;-57
2024/01/23 04:16:41;;;;;;;501.70;189.20;;;;;;;7.87;100.00;98431.03;4920530;29;20031;-56
2024/01/23 04:19:07;;;;;;;519.45;206.52;;;;;;;9.42;100.00;98427.66;4919210;29;20027;-57
2024/01/23 04:21:33;;;;;;;615.25;195.88;;;;;;;8.45;100.00;98430.09;4918621;28;20048;-57
2024/01/23 04:23:58;;;;;;;493.52;179.77;;;;;;;8.31;100.00;98432.50;4918948;29;20055;-56
2024/01/23 04:26:24;;;;;;;561.03;185.93;;;;;;;7.95;100.00;98438.94;4916577;29;20027;-56
2024/01/23 04:28:49;;;;;;;528.92;212.30;;;;;;;8.11;100.00;98437.44;4920250;29;20023;-56
2024/01/23 04:31:16;;;;;;;461.88;179.55;;;;;;;7.78;100.00;98433.50;4916077;28;20039;-56
2024/01/23 04:33:41;;;;;;;513.38;186.52;;;;;;;7.45;100.00;98433.00;4915408;29;20107;-57
2024/01/23 04:36:06;;;;;;;555.30;311.13;;;;;;;8.49;100.00;98443.09;4918653;28;20472;-56
2024/01/23 04:38:32;;;;;;;617.45;202.35;;;;;;;8.34;100.00;98458.47;4920493;29;20034;-58
2024/01/23 04:40:57;;;;;;;549.63;301.00;;;;;;;8.12;100.00;98451.28;4920582;28;20474;-56
2024/01/23 04:43:22;;;;;;;571.00;191.73;;;;;;;7.92;100.00;98451.84;4913761;29;20042;-56
2024/01/23 04:45:48;;;;;;;477.25;181.20;;;;;;;9.07;100.00;98461.09;4920098;29;20040;-57
2024/01/23 04:48:13;;;;;;;518.03;182.10;;;;;;;9.55;100.00;98464.97;4918745;29;22063;-57
2024/01/23 04:50:38;;;;;;;488.10;211.65;;;;;;;8.67;100.00;98465.81;4914132;28;20510;-56
2024/01/23 04:53:04;;;;;;;523.20;240.13;;;;;;;8.78;100.00;98473.72;4918875;29;20023;-57
2024/01/23 04:55:29;;;;;;;611.60;233.27;;;;;;;9.47;100.00;98478.75;4917268;28;20379;-56
2024/01/23 04:57:54;;;;;;;587.78;371.92;;;;;;;8.87;100.00;98480.75;4919560;29;20042;-56
2024/01/23 05:00:20;;;;;;;522.63;218.65;;;;;;;8.75;100.00;98473.69;4912166;29;20023;-56
2024/01/23 05:02:45;;;;;;;515.97;187.38;;;;;;;8.51;100.00;98475.09;4916996;29;20071;-57
2024/01/23 05:05:10;;;;;;;490.20;183.10;;;;;;;10.81;100.00;98491.75;4913347;29;20028;-57
2024/01/23 05:07:36;;;;;;;536.53;182.98;;;;;;;9.23;100.00;98471.59;4916423;29;20444;-57
2024/01/23 05:10:04;;;;;;;515.72;200.60;;;;;;;9.53;100.00;98487.47;4915449;29;20567;-57
2024/01/23 05:12:29;;;;;;;611.45;193.25;;;;;;;9.30;100.00;98506.28;4912806;29;20036;-56
2024/01/23 05:14:55;;;;;;;492.73;201.95;;;;;;;8.81;100.00;98508.38;4913766;29;20095;-56
2024/01/23 05:17:20;;;;;;;512.88;190.98;;;;;;;9.68;100.00;98521.34;4920141;28;20047;-56
2024/01/23 05:19:45;;;;;;;455.55;181.55;;;;;;;8.79;100.00;98522.13;4922523;29;20494;-57
2024/01/23 05:22:11;;;;;;;509.83;182.25;;;;;;;9.05;100.00;98526.78;4924142;28;20076;-57
2024/01/23 05:24:36;;;;;;;659.72;258.00;;;;;;;9.63;100.00;98531.72;4919142;29;20485;-58
2024/01/23 05:27:02;;;;;;;504.65;186.27;;;;;;;9.76;100.00;98532.69;4922699;28;20127;-56
2024/01/23 05:29:27;;;;;;;582.08;186.43;;;;;;;9.72;100.00;98543.00;4918559;29;20035;-56
2024/01/23 05:31:52;;;;;;;488.95;181.45;;;;;;;9.25;100.00;98551.22;4921531;28;20063;-58
2024/01/23 05:34:17;;;;;;;485.92;171.80;;;;;;;9.94;100.00;98570.06;4920789;29;20345;-58
2024/01/23 05:36:43;;;;;;;460.98;160.82;;;;;;;10.51;100.00;98571.41;4920424;28;20066;-58
2024/01/23 05:39:08;;;;;;;528.70;238.93;;;;;;;10.53;100.00;98567.94;4925994;29;20019;-57
2024/01/23 05:41:34;;;;;;;603.33;289.10;;;;;;;10.76;100.00;98572.38;4917387;28;20047;-56
2024/01/23 05:43:59;;;;;;;515.83;227.20;;;;;;;10.16;100.00;98576.31;4920206;29;20032;-57
2024/01/23 05:46:25;;;;;;;584.55;207.38;;;;;;;11.11;100.00;98583.84;4920419;28;20039;-56
2024/01/23 05:48:50;;;;;;;481.17;186.88;;;;;;;11.42;100.00;98590.88;4927223;29;20144;-57
2024/01/23 05:51:15;;;;;;;485.25;164.65;;;;;;;11.51;100.00;98585.69;4921002;28;20035;-57
2024/01/23 05:53:41;;;;;;;526.30;198.25;;;;;;;10.86;100.00;98590.66;4919603;29;20034;-58
2024/01/23 05:56:06;;;;;;;513.88;180.63;;;;;;;10.35;100.00;98599.00;4919815;28;20075;-57
2024/01/23 05:58:31;;;;;;;640.60;188.70;;;;;;;10.66;100.00;98604.44;4922147;29;20120;-57
2024/01/23 06:00:57;;;;;;;495.60;168.80;;;;;;;10.06;100.00;98604.81;4922711;28;20134;-57
2024/01/23 06:03:22;;;;;;;533.25;176.85;;;;;;;9.79;100.00;98598.53;4921983;29;20017;-57
2024/01/23 06:05:47;;;;;;;470.30;159.93;;;;;;;10.48;100.00;98615.56;4918291;28;20039;-56
2024/01/23 06:08:13;;;;;;;519.38;198.55;;;;;;;9.73;100.00;98626.16;4920668;29;20026;-55
2024/01/23 06:10:38;;;;;;;624.08;183.80;;;;;;;9.67;100.00;98644.28;4918913;28;20261;-56
2024/01/23 06:13:04;;;;;;;496.35;209.55;;;;;;;9.67;100.00;98656.41;4921199;29;20027;-57
2024/01/23 06:15:29;;;;;;;594.80;177.23;;;;;;;9.77;100.00;98664.31;4920717;28;20349;-56
2024/01/23 06:17:54;;;;;;;494.02;180.73;;;;;;;9.73;100.00;98657.34;4922804;29;20751;-56
2024/01/23 06:20:20;;;;;;;477.80;226.18;;;;;;;9.19;100.00;98673.16;4919074;29;20200;-57
2024/01/23 06:22:45;;;;;;;506.38;172.40;;;;;;;10.16;100.00;98666.41;4919691;29;20043;-56
2024/01/23 06:25:15;;;;;;;513.50;196.82;;;;;;;9.79;100.00;98666.94;4925573;28;20657;-56
2024/01/23 06:27:43;;;;;;;630.03;191.73;;;;;;;10.01;100.00;98672.34;4916269;29;20024;-57
2024/01/23 06:30:11;;;;;;;528.55;202.70;;;;;;;8.90;100.00;98685.72;4917331;28;20035;-57
2024/01/23 06:32:42;;;;;;;563.50;203.85;;;;;;;9.93;100.00;98693.06;4919410;29;20026;-58
2024/01/23 06:35:09;;;;;;;536.22;230.73;;;;;;;9.42;100.00;98695.94;4925156;29;20023;-58
2024/01/23 06:37:34;;;;;;;617.00;239.52;;;;;;;9.51;100.00;98693.44;4920048;29;20048;-58
2024/01/23 06:40:01;;;;;;;510.48;183.13;;;;;;;11.14;100.00;98698.38;4920934;28;20027;-57
2024/01/23 06:42:26;;;;;;;529.13;207.80;;;;;;;11.14;100.00;98710.56;4918022;29;20533;-57
2024/01/23 06:44:51;;;;;;;536.05;182.30;;;;;;;10.98;100.00;98714.81;4923772;29;20039;-57
2024/01/23 06:47:18;;;;;;;481.73;173.40;;;;;;;9.31;100.00;98716.56;4918103;29;20336;-59
2024/01/23 06:49:43;;;;;;;586.55;183.95;;;;;;;7.97;100.00;98718.72;4914301;29;20032;-60
2024/01/23 06:52:08;;;;;;;505.33;197.23;;;;;;;7.41;100.00;98729.72;4916187;29;20063;-59
2024/01/23 06:54:34;;;;;;;609.55;204.00;;;;;;;7.01;100.00;98744.34;4913993;29;20028;-60
2024/01/23 06:57:00;;;;;;;485.27;198.18;;;;;;;6.68;100.00;98755.66;4922080;28;20035;-58
2024/01/23 06:59:26;;;;;;;519.03;212.23;;;;;;;6.43;100.00;98766.25;4915310;29;20020;-58
2024/01/23 07:01:51;;;;;;;459.58;180.38;;;;;;;6.37;100.00;98774.72;4915072;28;20040;-58
2024/01/23 07:04:17;;;;;;;467.05;187.07;;;;;;;6.24;100.00;98770.06;4920520;29;20034;-58
2024/01/23 07:06:42;;;;;;;637.83;208.80;;;;;;;6.10;100.00;98774.84;4916486;28;20051;-59
2024/01/23 07:09:07;;;;;;;467.33;181.18;;;;;;;6.02;100.00;98786.63;4920845;29;20411;-58
2024/01/23 07:11:33;;;;;;;611.88;223.13;;;;;;;5.93;100.00;98800.13;4917625;28;20144;-58
2024/01/23 07:13:59;;;;;;;486.63;181.25;;;;;;;6.13;100.00;98818.84;4918391;29;20028;-58
2024/01/23 07:16:25;;;;;;;486.92;191.00;;;;;;;5.98;100.00;98827.84;4918900;28;20130;-59
2024/01/23 07:18:50;;;;;;;472.13;190.13;;;;;;;6.07;100.00;98823.81;4917563;29;20423;-60
2024/01/23 07:21:16;;;;;;;461.25;193.15;;;;;;;6.08;100.00;98822.97;4917121;28;20253;-58
2024/01/23 07:23:41;;;;;;;580.58;190.25;;;;;;;6.10;100.00;98831.66;4916732;29;20067;-58
2024/01/23 07:26:06;;;;;;;484.25;187.18;;;;;;;6.02;100.00;98833.13;4917411;28;20097;-59
2024/01/23 07:28:32;;;;;;;633.35;192.40;;;;;;;6.16;100.00;98838.72;4918699;29;20030;-58
2024/01/23 07:30:57;;;;;;;478.92;200.93;;;;;;;6.20;100.00;98850.88;4916295;28;20092;-58
2024/01/23 07:33:22;;;;;;;459.38;183.35;;;;;;;6.15;100.00;98867.94;4920298;29;20411;-59
2024/01/23 07:35:49;;;;;;;484.60;194.05;;;;;;;6.09;100.00;98871.25;4917425;29;20361;-58
2024/01/23 07:38:15;;;;;;;451.27;183.13;;;;;;;6.18;100.00;98865.44;4918763;29;20469;-59
2024/01/23 07:40:41;;;;;;;616.67;219.50;;;;;;;5.95;100.00;98873.38;4917432;28;20059;-58
2024/01/23 07:43:06;;;;;;;485.80;201.65;;;;;;;6.09;100.00;98869.53;4920741;29;20535;-58
2024/01/23 07:45:32;;;;;;;518.30;200.57;;;;;;;6.27;100.00;98870.88;4914601;29;20047;-59
2024/01/23 07:47:57;;;;;;;463.83;210.23;;;;;;;6.44;100.00;98883.38;4918093;29;20482;-58
2024/01/23 07:50:23;;;;;;;475.02;189.60;;;;;;;7.00;100.00;98892.63;4916623;28;20035;-59
2024/01/23 07:52:48;;;;;;;458.55;183.63;;;;;;;7.48;100.00;98900.69;4917696;28;20032;-59
2024/01/23 07:55:13;;;;;;;451.63;184.40;;;;;;;6.77;100.00;98895.50;4918906;29;20267;-59
2024/01/23 07:57:39;;;;;;;617.85;208.68;;;;;;;6.68;100.00;98895.25;4915367;29;20054;-59
2024/01/23 08:00:05;;;;;;;470.75;199.68;;;;;;;6.57;100.00;98890.66;4918949;28;20524;-57
2024/01/23 08:02:32;;;;;;;462.88;185.85;;;;;;;6.47;100.00;98881.78;4918210;29;20749;-59
2024/01/23 08:04:57;;;;;;;479.85;194.38;;;;;;;6.48;100.00;98892.97;4919166;29;20030;-58
2024/01/23 08:07:22;;;;;;;477.02;207.38;;;;;;;6.55;100.00;98905.25;4920316;29;20027;-57
2024/01/23 08:09:48;;;;;;;616.83;218.45;;;;;;;6.70;100.00;98894.44;4917852;29;20097;-59
2024/01/23 08:12:15;;;;;;;479.48;193.70;;;;;;;6.92;100.00;98888.97;4919817;28;20411;-59
2024/01/23 08:14:40;;;;;;;590.60;211.35;;;;;;;6.94;100.00;98895.06;4918963;29;20295;-59
2024/01/23 08:17:05;;;;;;;476.67;199.02;;;;;;;6.87;100.00;98894.88;4918708;28;20031;-59
2024/01/23 08:19:31;;;;;;;469.40;203.73;;;;;;;7.06;100.00;98903.16;4918502;29;20233;-59
2024/01/23 08:21:56;;;;;;;491.45;194.00;;;;;;;7.22;100.00;98904.41;4917693;29;20051;-59
2024/01/23 08:24:21;;;;;;;484.60;188.65;;;;;;;7.21;100.00;98913.00;4919257;29;20063;-60
2024/01/23 08:26:47;;;;;;;563.00;235.07;;;;;;;7.78;100.00;98917.78;4912433;29;20043;-59
2024/01/23 08:29:12;;;;;;;520.08;271.25;;;;;;;9.22;100.00;98917.22;4916005;29;20298;-58
2024/01/23 08:31:38;;;;;;;601.88;222.43;;;;;;;10.41;100.00;98916.31;4915735;28;20044;-59
2024/01/23 08:34:04;;;;;;;508.88;200.45;;;;;;;10.54;100.00;98914.75;4919284;29;20023;-60
2024/01/23 08:36:29;;;;;;;524.33;196.40;;;;;;;10.72;100.00;98901.06;4915612;28;20040;-58
2024/01/23 08:38:54;;;;;;;528.83;206.35;;;;;;;10.52;100.00;98913.88;4915841;29;20499;-56
2024/01/23 08:41:20;;;;;;;504.23;183.75;;;;;;;10.11;100.00;98920.25;4914365;28;20035;-55
2024/01/23 08:43:45;;;;;;;612.67;199.55;;;;;;;10.45;100.00;98917.25;4916504;29;20059;-60
2024/01/23 08:46:13;;;;;;;525.15;218.45;;;;;;;12.11;100.00;98910.88;4915263;28;20671;-59
2024/01/23 08:48:39;;;;;;;582.28;199.38;;;;;;;12.33;100.00;98916.19;4918375;29;20079;-59
2024/01/23 08:51:04;;;;;;;505.75;209.10;;;;;;;11.77;100.00;98915.84;4917038;28;20102;-59
2024/01/23 08:53:30;;;;;;;533.58;185.95;;;;;;;11.82;100.00;98919.38;4917627;29;20024;-60
2024/01/23 08:55:55;;;;;;;518.10;198.35;;;;;;;11.56;100.00;98917.47;4916191;28;20110;-58
2024/01/23 08:58:20;;;;;;;501.42;210.50;;;;;;;11.11;100.00;98913.59;4920162;29;20122;-58
2024/01/23 09:00:46;;;;;;;630.63;194.07;;;;;;;11.59;100.00;98927.91;4915767;29;20063;-55
2024/01/23 09:03:11;;;;;;;499.05;231.85;;;;;;;12.33;100.00;98931.00;4916787;29;20433;-58
2024/01/23 09:05:36;;;;;;;540.33;203.25;;;;;;;12.84;100.00;98939.00;4920401;29;20051;-57
2024/01/23 09:08:02;;;;;;;495.75;231.27;;;;;;;12.11;100.00;98936.94;4922372;29;20229;-57
2024/01/23 09:10:29;;;;;;;508.35;194.57;;;;;;;13.26;100.00;98962.56;4919034;28;20055;-58
2024/01/23 09:12:54;;;;;;;466.33;187.15;;;;;;;11.97;100.00;98946.41;4922143;29;20027;-57
2024/01/23 09:15:19;;;;;;;545.70;352.73;;;;;;;12.13;100.00;98939.56;4922886;28;20055;-57
2024/01/23 09:17:45;;;;;;;599.75;191.50;;;;;;;11.77;100.00;98956.72;4920393;29;20379;-58
2024/01/23 09:20:11;;;;;;;474.15;181.15;;;;;;;12.42;100.00;98957.13;4919875;28;20118;-57
2024/01/23 09:22:36;;;;;;;496.40;190.13;;;;;;;13.19;100.00;98966.06;4920640;29;20024;-58
2024/01/23 09:25:05;;;;;;;479.42;193.98;;;;;;;12.99;100.00;98966.03;4918667;29;20068;-57
2024/01/23 09:27:31;;;;;;;469.10;177.23;;;;;;;12.61;100.00;98971.13;4922306;28;20122;-57
2024/01/23 09:29:56;;;;;;;478.90;201.75;;;;;;;12.56;100.00;98970.25;4918584;29;20558;-58
2024/01/23 09:32:21;;;;;;;550.95;356.80;;;;;;;11.95;100.00;98966.41;4920276;28;20040;-58
2024/01/23 09:34:47;;;;;;;547.35;211.15;;;;;;;11.27;100.00;98971.91;4919683;29;20032;-58
2024/01/23 09:37:13;;;;;;;499.15;304.73;;;;;;;13.23;100.00;98973.06;4924574;28;20099;-59
2024/01/23 09:39:38;;;;;;;557.63;207.02;;;;;;;12.54;100.00;98974.56;4921182;29;20495;-58
2024/01/23 09:42:04;;;;;;;456.35;182.93;;;;;;;12.95;100.00;98985.19;4920188;28;20407;-58
2024/01/23 09:44:30;;;;;;;515.30;228.90;;;;;;;13.40;100.00;98985.28;4921794;29;20028;-57
2024/01/23 09:46:57;;;;;;;519.83;189.40;;;;;;;13.62;100.00;98996.63;4919386;29;20051;-58
2024/01/23 09:49:22;;;;;;;483.75;187.60;;;;;;;12.21;100.00;99005.69;4919834;29;20027;-57
2024/01/23 09:51:49;;;;;;;606.72;191.57;;;;;;;12.11;100.00;98996.94;4914603;29;20470;-58
2024/01/23 09:54:15;;;;;;;452.05;188.07;;;;;;;12.14;100.00;99016.94;4921003;29;20039;-57
2024/01/23 09:56:40;;;;;;;510.35;196.32;;;;;;;12.67;100.00;99025.09;4916500;28;20114;-59
2024/01/23 09:59:06;;;;;;;507.45;174.63;;;;;;;12.36;100.00;99023.19;4922194;28;20069;-59
2024/01/23 10:01:33;;;;;;;539.20;280.25;;;;;;;8.68;100.00;99022.53;4918984;28;20515;-58
2024/01/23 10:04:00;;;;;;;448.15;201.55;;;;;;;7.23;100.00;99024.28;4922879;29;20028;-60
2024/01/23 10:06:26;;;;;;;542.20;318.15;;;;;;;6.79;100.00;99023.09;4923798;29;20047;-58
2024/01/23 10:08:51;;;;;;;602.55;409.13;;;;;;;6.55;100.00;99043.94;4926187;29;20028;-58
2024/01/23 10:11:16;;;;;;;431.08;193.15;;;;;;;6.59;100.00;99051.84;4925732;28;20506;-58
2024/01/23 10:13:42;;;;;;;581.63;216.30;;;;;;;6.74;100.00;99046.25;4921363;29;20499;-58
2024/01/23 10:16:09;;;;;;;423.33;274.02;;;;;;;6.74;100.00;99066.94;4922317;28;20396;-58
2024/01/23 10:18:35;;;;;;;456.77;210.90;;;;;;;6.93;100.00;99066.59;4926171;29;20035;-58
2024/01/23 10:21:00;;;;;;;506.80;292.15;;;;;;;7.00;100.00;99066.81;4916986;28;20047;-58
2024/01/23 10:23:27;;;;;;;595.75;480.70;;;;;;;6.84;100.00;99064.63;4927371;29;20036;-57
2024/01/23 10:25:54;;;;;;;669.35;468.30;;;;;;;6.84;100.00;99075.84;4926517;28;20040;-58
2024/01/23 10:28:22;;;;;;;647.78;463.98;;;;;;;6.65;100.00;99061.50;4924658;29;20027;-58
2024/01/23 10:30:47;;;;;;;510.70;190.52;;;;;;;6.88;100.00;99075.13;4922538;28;20043;-59
2024/01/23 10:33:13;;;;;;;411.35;204.30;;;;;;;7.82;100.00;99057.75;4925762;29;20021;-59
2024/01/23 10:35:40;;;;;;;472.08;191.80;;;;;;;8.20;100.00;99062.13;4922396;29;20036;-57
2024/01/23 10:38:06;;;;;;;430.60;203.88;;;;;;;8.60;100.00;99058.69;4922209;29;20419;-58
2024/01/23 10:40:32;;;;;;;458.80;189.30;;;;;;;9.20;100.00;99052.97;4925056;28;20052;-58
2024/01/23 10:42:59;;;;;;;574.47;191.13;;;;;;;9.25;100.00;99066.94;4921284;29;20132;-58
2024/01/23 10:45:24;;;;;;;459.25;202.60;;;;;;;9.62;100.00;99054.63;4926150;28;20019;-58
2024/01/23 10:47:52;;;;;;;490.08;180.65;;;;;;;9.47;100.00;99055.22;4921949;29;20059;-57
2024/01/23 10:50:19;;;;;;;449.85;176.65;;;;;;;9.47;100.00;99055.22;4922742;29;20028;-58
2024/01/23 10:52:47;;;;;;;574.00;192.90;;;;;;;10.32;100.00;99077.41;4921129;29;20024;-59